createdAt,value
2018-11-03T00:02:26.496Z,95.00
2018-11-03T00:04:55.445Z,94.20
2018-11-03T00:07:24.466Z,94.30
2018-11-03T00:09:53.646Z,94.40
2018-11-03T00:12:22.630Z,95.10
2018-11-03T00:14:51.582Z,95.30
2018-11-03T00:17:20.645Z,95.70
2018-11-03T00:19:49.571Z,95.70
2018-11-03T00:22:18.480Z,94.30
2018-11-03T00:24:47.482Z,94.20
2018-11-03T00:27:16.418Z,94.10
2018-11-03T00:29:45.352Z,94.10
2018-11-03T00:32:14.419Z,94.50
2018-11-03T00:34:43.326Z,94.90
2018-11-03T00:37:12.238Z,95.10
2018-11-03T00:39:41.110Z,95.00
2018-11-03T00:42:10.032Z,95.10
2018-11-03T00:44:39.831Z,95.40
2018-11-03T00:47:08.942Z,95.60
2018-11-03T00:49:37.842Z,95.60
2018-11-03T00:52:06.768Z,96.00
2018-11-03T00:54:35.854Z,96.50
2018-11-03T00:57:04.778Z,96.70
2018-11-03T00:59:33.723Z,97.00
2018-11-03T01:02:02.678Z,96.80
2018-11-03T01:04:31.578Z,96.30
2018-11-03T01:07:00.526Z,96.30
2018-11-03T01:09:29.403Z,96.40
2018-11-03T01:11:58.308Z,96.30
2018-11-03T01:14:27.174Z,96.60
2018-11-03T01:16:56.202Z,96.70
2018-11-03T01:19:25.135Z,96.60
2018-11-03T01:21:54.144Z,96.80
2018-11-03T01:24:23.057Z,97.00
2018-11-03T01:26:51.970Z,97.00
2018-11-03T01:29:20.867Z,97.40
2018-11-03T01:31:49.762Z,97.50
2018-11-03T01:34:18.823Z,97.30
2018-11-03T01:36:47.735Z,97.80
2018-11-03T01:39:16.638Z,97.80
2018-11-03T01:41:45.539Z,97.80
2018-11-03T01:44:14.420Z,98.20
2018-11-03T01:46:43.392Z,98.30
2018-11-03T01:49:12.337Z,98.30
2018-11-03T01:51:41.218Z,97.50
2018-11-03T01:54:10.120Z,96.90
2018-11-03T01:56:39.006Z,96.50
2018-11-03T01:59:07.951Z,96.30
2018-11-03T02:01:36.846Z,96.30
2018-11-03T02:04:05.938Z,96.60
2018-11-03T02:06:34.975Z,96.50
2018-11-03T02:09:04.163Z,96.40
2018-11-03T02:11:33.037Z,96.40
2018-11-03T02:14:01.928Z,96.70
2018-11-03T02:16:30.798Z,97.00
2018-11-03T02:18:59.681Z,97.40
2018-11-03T02:21:28.618Z,97.40
2018-11-03T02:23:57.527Z,97.70
2018-11-03T02:26:26.434Z,97.80
2018-11-03T02:28:55.337Z,98.10
2018-11-03T02:31:24.254Z,98.40
2018-11-03T02:33:53.150Z,98.10
2018-11-03T02:36:22.195Z,97.60
2018-11-03T02:38:51.127Z,97.70
2018-11-03T02:41:20.046Z,97.70
2018-11-03T02:43:48.954Z,97.70
2018-11-03T02:46:17.874Z,97.40
2018-11-03T02:48:46.756Z,97.10
2018-11-03T02:51:15.643Z,96.90
2018-11-03T02:53:44.550Z,96.80
2018-11-03T02:56:13.422Z,97.30
2018-11-03T02:58:42.323Z,97.60
2018-11-03T03:01:11.257Z,97.90
2018-11-03T03:03:40.156Z,98.30
2018-11-03T03:06:09.041Z,98.50
2018-11-03T03:08:37.945Z,98.60
2018-11-03T03:11:06.847Z,98.50
2018-11-03T03:13:35.730Z,98.10
2018-11-03T03:16:04.879Z,97.60
2018-11-03T03:18:33.762Z,97.10
2018-11-03T03:21:02.648Z,97.10
2018-11-03T03:23:31.598Z,97.60
2018-11-03T03:26:00.465Z,97.60
2018-11-03T03:28:29.427Z,97.80
2018-11-03T03:30:58.316Z,97.80
2018-11-03T03:33:28.028Z,98.00
2018-11-03T03:35:56.907Z,97.60
2018-11-03T03:38:25.918Z,96.40
2018-11-03T03:40:54.838Z,95.90
2018-11-03T03:43:23.749Z,95.50
2018-11-03T03:45:52.679Z,95.50
2018-11-03T03:48:21.650Z,95.00
2018-11-03T03:50:50.647Z,95.00
2018-11-03T03:53:19.778Z,93.90
2018-11-03T03:55:48.922Z,93.10
2018-11-03T03:58:17.817Z,93.20
2018-11-03T04:00:46.707Z,93.90
2018-11-03T04:03:15.598Z,94.30
2018-11-03T04:05:44.482Z,94.70
2018-11-03T04:08:13.373Z,94.10
2018-11-03T04:10:42.310Z,93.90
2018-11-03T04:13:11.211Z,94.10
2018-11-03T04:15:40.110Z,93.90
2018-11-03T04:18:09.102Z,93.40
2018-11-03T04:20:38.017Z,93.80
2018-11-03T04:23:06.918Z,94.20
2018-11-03T04:25:35.792Z,93.80
2018-11-03T04:28:04.728Z,94.20
2018-11-03T04:30:33.634Z,93.80
2018-11-03T04:33:02.528Z,93.90
2018-11-03T04:35:31.407Z,94.10
2018-11-03T04:38:00.354Z,94.80
2018-11-03T04:40:29.235Z,95.00
2018-11-03T04:42:58.106Z,95.20
2018-11-03T04:45:27.011Z,94.70
2018-11-03T04:47:55.894Z,94.80
2018-11-03T04:50:24.771Z,94.80
2018-11-03T04:52:53.730Z,94.80
2018-11-03T04:55:22.656Z,95.10
2018-11-03T04:57:51.566Z,94.90
2018-11-03T05:00:20.550Z,94.60
2018-11-03T05:02:49.438Z,95.00
2018-11-03T05:05:18.310Z,95.80
2018-11-03T05:07:47.208Z,95.70
2018-11-03T05:10:16.139Z,95.40
2018-11-03T05:12:45.122Z,95.10
2018-11-03T05:15:14.039Z,95.00
2018-11-03T05:17:42.933Z,94.70
2018-11-03T05:20:11.815Z,94.70
2018-11-03T05:22:40.707Z,94.40
2018-11-03T05:25:09.606Z,94.40
2018-11-03T05:27:38.557Z,94.50
2018-11-03T05:30:08.103Z,94.30
2018-11-03T05:32:37.428Z,94.70
2018-11-03T05:35:06.494Z,94.80
2018-11-03T05:37:35.413Z,95.00
2018-11-03T05:40:04.381Z,94.70
2018-11-03T05:42:33.266Z,95.30
2018-11-03T05:45:02.182Z,95.50
2018-11-03T05:47:31.107Z,95.10
2018-11-03T05:50:00.094Z,95.50
2018-11-03T05:52:28.994Z,95.70
2018-11-03T05:54:57.870Z,96.20
2018-11-03T05:57:26.769Z,96.40
2018-11-03T05:59:55.774Z,96.70
2018-11-03T06:02:24.651Z,96.80
2018-11-03T06:04:53.666Z,96.70
2018-11-03T06:07:22.591Z,96.70
2018-11-03T06:09:52.098Z,97.20
2018-11-03T06:12:20.977Z,97.40
2018-11-03T06:14:49.869Z,97.50
2018-11-03T06:17:18.790Z,97.30
2018-11-03T06:19:47.671Z,97.20
2018-11-03T06:22:16.574Z,96.90
2018-11-03T06:24:45.439Z,96.70
2018-11-03T06:27:14.366Z,96.50
2018-11-03T06:29:43.292Z,96.40
2018-11-03T06:32:12.319Z,96.70
2018-11-03T06:34:41.269Z,96.10
2018-11-03T06:37:10.358Z,96.70
2018-11-03T06:39:39.254Z,96.40
2018-11-03T06:42:08.226Z,95.30
2018-11-03T06:44:37.146Z,94.80
2018-11-03T06:47:06.114Z,93.90
2018-11-03T06:49:35.039Z,93.90
2018-11-03T06:52:04.135Z,93.30
2018-11-03T06:54:33.050Z,93.50
2018-11-03T06:57:02.127Z,93.60
2018-11-03T06:59:31.102Z,93.30
2018-11-03T07:02:00.006Z,92.80
2018-11-03T07:04:28.942Z,92.10
2018-11-03T07:06:57.862Z,92.00
2018-11-03T07:09:26.841Z,91.10
2018-11-03T07:11:55.948Z,90.20
2018-11-03T07:14:24.843Z,90.90
2018-11-03T07:16:53.778Z,90.40
2018-11-03T07:19:22.712Z,92.60
2018-11-03T07:21:51.684Z,92.90
2018-11-03T07:24:20.510Z,91.20
2018-11-03T07:26:49.498Z,90.50
2018-11-03T07:29:18.813Z,90.60
2018-11-03T07:31:47.727Z,90.10
2018-11-03T07:34:16.620Z,90.10
2018-11-03T07:36:45.522Z,90.80
2018-11-03T07:39:14.526Z,92.50
2018-11-03T07:41:43.553Z,91.80
2018-11-03T07:44:12.435Z,90.60
2018-11-03T07:46:41.330Z,90.20
2018-11-03T07:49:11.583Z,88.60
2018-11-03T07:51:40.246Z,86.40
2018-11-03T07:54:09.106Z,87.90
2018-11-03T07:56:38.024Z,88.00
2018-11-03T07:59:06.966Z,86.50
2018-11-03T08:01:36.039Z,84.50
2018-11-03T08:04:05.579Z,82.20
2018-11-03T08:06:35.581Z,83.40
2018-11-03T08:09:06.511Z,81.70
2018-11-03T08:11:35.475Z,81.90
2018-11-03T08:14:04.482Z,78.20
2018-11-03T08:16:33.464Z,79.70
2018-11-03T08:19:02.431Z,81.50
2018-11-03T08:21:31.370Z,75.20
2018-11-03T08:24:00.409Z,71.50
2018-11-03T08:26:29.767Z,73.30
2018-11-03T08:28:58.638Z,70.30
2018-11-03T08:31:27.690Z,71.80
2018-11-03T08:33:56.663Z,71.00
2018-11-03T08:36:25.896Z,70.60
2018-11-03T08:38:54.843Z,69.00
2018-11-03T08:41:23.835Z,70.20
2018-11-03T08:43:52.820Z,69.60
2018-11-03T08:46:21.890Z,68.80
2018-11-03T08:48:51.174Z,68.40
2018-11-03T08:51:20.298Z,70.60
2018-11-03T08:53:49.250Z,68.60
2018-11-03T08:56:18.161Z,67.20
2018-11-03T08:58:47.052Z,62.50
2018-11-03T09:01:15.966Z,64.50
2018-11-03T09:03:44.931Z,65.00
2018-11-03T09:06:13.790Z,68.10
2018-11-03T09:08:42.707Z,69.10
2018-11-03T09:11:11.630Z,63.30
2018-11-03T09:13:40.768Z,63.90
2018-11-03T09:16:09.786Z,60.50
2018-11-03T09:18:38.782Z,62.30
2018-11-03T09:21:07.690Z,63.90
2018-11-03T09:23:36.618Z,64.10
2018-11-03T09:26:05.854Z,64.20
2018-11-03T09:28:34.750Z,59.90
2018-11-03T09:31:03.734Z,57.70
2018-11-03T09:33:32.691Z,57.00
2018-11-03T09:36:01.623Z,55.80
2018-11-03T09:38:30.782Z,58.50
2018-11-03T09:40:59.747Z,56.70
2018-11-03T09:43:28.735Z,55.50
2018-11-03T09:45:57.598Z,56.20
2018-11-03T09:48:26.564Z,60.60
2018-11-03T09:50:55.491Z,63.50
2018-11-03T09:53:24.398Z,59.60
2018-11-03T09:55:53.698Z,58.80
2018-11-03T09:58:22.679Z,55.50
2018-11-03T10:00:51.771Z,56.30
2018-11-03T10:03:20.734Z,57.00
2018-11-03T10:05:50.558Z,57.60
2018-11-03T10:08:19.610Z,56.30
2018-11-03T10:10:48.542Z,56.30
2018-11-03T10:13:18.507Z,55.10
2018-11-03T10:15:47.569Z,54.90
2018-11-03T10:18:16.396Z,55.60
2018-11-03T10:20:46.431Z,55.60
2018-11-03T10:23:15.491Z,54.70
2018-11-03T10:25:44.408Z,55.70
2018-11-03T10:28:13.306Z,54.20
2018-11-03T10:30:42.345Z,54.70
2018-11-03T10:33:11.319Z,53.30
2018-11-03T10:35:40.211Z,54.40
2018-11-03T10:38:09.286Z,55.60
2018-11-03T10:40:38.299Z,54.70
2018-11-03T10:43:07.271Z,55.90
2018-11-03T10:45:36.182Z,52.50
2018-11-03T10:48:05.407Z,52.20
2018-11-03T10:50:34.322Z,51.30
2018-11-03T10:53:03.242Z,51.20
2018-11-03T10:55:32.363Z,50.70
2018-11-03T10:58:01.265Z,52.60
2018-11-03T11:00:35.561Z,52.80
2018-11-03T11:03:09.874Z,53.40
2018-11-03T11:05:39.086Z,51.80
2018-11-03T11:08:13.327Z,51.80
2018-11-03T11:10:47.896Z,51.30
2018-11-03T11:13:22.719Z,50.50
2018-11-03T11:15:53.474Z,49.90
2018-11-03T11:18:22.709Z,51.40
2018-11-03T11:20:51.977Z,50.20
2018-11-03T11:23:21.158Z,50.30
2018-11-03T11:25:50.261Z,50.90
2018-11-03T11:28:19.354Z,51.70
2018-11-03T11:30:48.266Z,51.10
2018-11-03T11:33:18.011Z,50.10
2018-11-03T11:35:46.892Z,50.30
2018-11-03T11:38:16.162Z,49.10
2018-11-03T11:40:45.294Z,49.90
2018-11-03T11:43:14.962Z,47.80
2018-11-03T11:45:43.868Z,49.60
2018-11-03T11:48:12.772Z,51.30
2018-11-03T11:50:42.453Z,48.00
2018-11-03T11:53:11.438Z,47.90
2018-11-03T11:55:40.473Z,48.10
2018-11-03T11:58:09.668Z,47.30
2018-11-03T12:00:38.663Z,46.60
2018-11-03T12:03:07.632Z,47.30
2018-11-03T12:05:36.522Z,48.20
2018-11-03T12:08:06.063Z,47.00
2018-11-03T12:10:35.008Z,46.20
2018-11-03T12:13:04.144Z,45.70
2018-11-03T12:15:33.060Z,45.60
2018-11-03T12:18:02.086Z,46.70
2018-11-03T12:20:31.043Z,47.70
2018-11-03T12:23:00.596Z,48.20
2018-11-03T12:25:29.618Z,45.60
2018-11-03T12:27:58.613Z,45.00
2018-11-03T12:30:27.773Z,45.90
2018-11-03T12:32:56.710Z,45.50
2018-11-03T12:35:25.640Z,47.00
2018-11-03T12:37:54.610Z,48.20
2018-11-03T12:40:23.570Z,45.50
2018-11-03T12:42:54.610Z,45.10
2018-11-03T12:45:23.531Z,45.90
2018-11-03T12:47:52.625Z,46.60
2018-11-03T12:50:23.560Z,46.70
2018-11-03T12:52:53.665Z,46.70
2018-11-03T12:55:22.603Z,46.30
2018-11-03T12:57:51.565Z,47.40
2018-11-03T13:00:20.517Z,45.40
2018-11-03T13:02:49.438Z,45.90
2018-11-03T13:05:18.507Z,47.00
2018-11-03T13:07:47.362Z,48.00
2018-11-03T13:10:16.251Z,48.40
2018-11-03T13:12:45.198Z,47.00
2018-11-03T13:15:14.350Z,48.10
2018-11-03T13:17:43.274Z,47.00
2018-11-03T13:20:13.708Z,47.10
2018-11-03T13:22:43.368Z,47.40
2018-11-03T13:25:12.870Z,46.80
2018-11-03T13:27:42.280Z,48.10
2018-11-03T13:30:13.930Z,46.10
2018-11-03T13:32:42.934Z,46.20
2018-11-03T13:35:12.953Z,47.90
2018-11-03T13:37:41.974Z,47.50
2018-11-03T13:40:12.439Z,48.10
2018-11-03T13:42:43.593Z,46.50
2018-11-03T13:45:12.574Z,46.40
2018-11-03T13:47:41.618Z,45.60
2018-11-03T13:50:11.606Z,47.50
2018-11-03T13:52:42.154Z,48.10
2018-11-03T13:55:11.364Z,46.90
2018-11-03T13:57:41.302Z,46.60
2018-11-03T14:00:13.618Z,47.00
2018-11-03T14:02:44.743Z,48.10
2018-11-03T14:05:13.699Z,47.80
2018-11-03T14:07:42.626Z,46.80
2018-11-03T14:10:13.715Z,45.70
2018-11-03T14:12:43.424Z,45.50
2018-11-03T14:15:13.664Z,47.50
2018-11-03T14:17:42.564Z,46.40
2018-11-03T14:20:12.698Z,45.40
2018-11-03T14:22:42.371Z,44.70
2018-11-03T14:25:12.870Z,46.40
2018-11-03T14:27:42.999Z,46.70
2018-11-03T14:30:12.718Z,46.40
2018-11-03T14:32:41.802Z,46.40
2018-11-03T14:35:11.805Z,44.90
2018-11-03T14:37:41.170Z,44.90
2018-11-03T14:40:12.426Z,45.90
2018-11-03T14:42:42.421Z,44.80
2018-11-03T14:45:12.267Z,44.80
2018-11-03T14:47:41.366Z,46.10
2018-11-03T14:50:10.528Z,46.60
2018-11-03T14:52:40.732Z,46.70
2018-11-03T14:55:10.691Z,47.20
2018-11-03T14:57:39.692Z,49.70
2018-11-03T15:00:14.487Z,49.20
2018-11-03T15:02:43.479Z,48.00
2018-11-03T15:05:12.979Z,48.70
2018-11-03T15:07:42.189Z,51.90
2018-11-03T15:10:12.489Z,50.30
2018-11-03T15:12:42.503Z,49.50
2018-11-03T15:15:13.280Z,50.90
2018-11-03T15:17:42.622Z,52.10
2018-11-03T15:20:13.002Z,50.80
2018-11-03T15:22:43.274Z,51.20
2018-11-03T15:25:12.485Z,52.10
2018-11-03T15:27:42.078Z,51.80
2018-11-03T15:30:12.541Z,53.40
2018-11-03T15:32:41.846Z,54.10
2018-11-03T15:35:11.740Z,54.30
2018-11-03T15:37:40.902Z,54.50
2018-11-03T15:40:12.765Z,54.10
2018-11-03T15:42:41.965Z,53.90
2018-11-03T15:45:12.831Z,55.90
2018-11-03T15:47:42.272Z,55.80
2018-11-03T15:50:11.790Z,55.80
2018-11-03T15:52:40.781Z,55.80
2018-11-03T15:55:09.815Z,56.30
2018-11-03T15:57:39.303Z,55.70
2018-11-03T16:00:11.878Z,58.00
2018-11-03T16:02:40.953Z,56.20
2018-11-03T16:05:10.375Z,56.70
2018-11-03T16:07:39.418Z,56.90
2018-11-03T16:10:09.444Z,58.20
2018-11-03T16:12:38.734Z,56.90
2018-11-03T16:15:09.218Z,57.10
2018-11-03T16:17:38.747Z,56.00
2018-11-03T16:20:09.049Z,56.10
2018-11-03T16:22:38.158Z,58.00
2018-11-03T16:25:08.045Z,56.80
2018-11-03T16:27:37.186Z,57.40
2018-11-03T16:30:08.655Z,58.30
2018-11-03T16:32:37.950Z,58.80
2018-11-03T16:35:06.894Z,58.60
2018-11-03T16:37:36.209Z,58.60
2018-11-03T16:40:06.242Z,59.70
2018-11-03T16:42:35.149Z,57.70
2018-11-03T16:45:04.569Z,58.20
2018-11-03T16:47:33.743Z,59.00
2018-11-03T16:50:03.563Z,60.50
2018-11-03T16:52:32.620Z,58.90
2018-11-03T16:55:01.599Z,60.50
2018-11-03T16:57:30.543Z,57.80
2018-11-03T16:59:59.459Z,57.60
2018-11-03T17:02:28.478Z,58.10
2018-11-03T17:04:57.606Z,59.00
2018-11-03T17:07:26.506Z,58.60
2018-11-03T17:09:55.482Z,58.50
2018-11-03T17:12:24.482Z,58.80
2018-11-03T17:14:53.622Z,58.30
2018-11-03T17:17:22.669Z,59.10
2018-11-03T17:19:52.002Z,60.20
2018-11-03T17:22:22.114Z,58.90
2018-11-03T17:24:51.981Z,58.70
2018-11-03T17:27:28.196Z,61.50
2018-11-03T17:29:58.387Z,63.40
2018-11-03T17:32:27.789Z,61.10
2018-11-03T17:34:58.061Z,59.60
2018-11-03T17:37:27.107Z,60.30
2018-11-03T17:39:56.225Z,64.50
2018-11-03T17:42:30.575Z,64.30
2018-11-03T17:44:59.654Z,60.80
2018-11-03T17:47:28.737Z,60.90
2018-11-03T17:49:58.540Z,61.40
2018-11-03T17:52:29.038Z,59.80
2018-11-03T17:54:58.372Z,61.20
2018-11-03T17:57:31.072Z,62.40
2018-11-03T18:00:00.927Z,61.80
2018-11-03T18:02:30.090Z,60.40
2018-11-03T18:04:59.154Z,60.70
2018-11-03T18:07:29.028Z,61.70
2018-11-03T18:09:59.195Z,62.10
2018-11-03T18:12:28.585Z,63.10
2018-11-03T18:14:57.656Z,64.40
2018-11-03T18:17:27.092Z,66.90
2018-11-03T18:19:56.552Z,67.10
2018-11-03T18:22:25.591Z,70.20
2018-11-03T18:24:54.887Z,69.20
2018-11-03T18:27:26.570Z,69.10
2018-11-03T18:29:55.743Z,72.60
2018-11-03T18:32:25.037Z,66.70
2018-11-03T18:34:54.776Z,66.70
2018-11-03T18:37:23.855Z,68.10
2018-11-03T18:39:53.301Z,68.70
2018-11-03T18:42:22.503Z,68.60
2018-11-03T18:44:52.807Z,69.10
2018-11-03T18:47:21.974Z,70.70
2018-11-03T18:49:51.132Z,71.80
2018-11-03T18:52:20.343Z,69.40
2018-11-03T18:54:49.461Z,68.30
2018-11-03T18:57:19.791Z,70.30
2018-11-03T18:59:48.843Z,72.30
2018-11-03T19:02:17.748Z,68.50
2018-11-03T19:04:46.690Z,66.60
2018-11-03T19:07:15.990Z,70.20
2018-11-03T19:09:44.983Z,69.70
2018-11-03T19:12:14.024Z,72.00
2018-11-03T19:14:43.900Z,71.40
2018-11-03T19:17:12.906Z,74.00
2018-11-03T19:19:43.261Z,70.50
2018-11-03T19:22:14.166Z,73.00
2018-11-03T19:24:43.339Z,73.90
2018-11-03T19:27:12.421Z,72.50
2018-11-03T19:29:41.559Z,74.70
2018-11-03T19:32:11.513Z,75.10
2018-11-03T19:34:40.443Z,77.30
2018-11-03T19:37:09.534Z,77.20
2018-11-03T19:39:38.490Z,73.90
2018-11-03T19:42:07.426Z,74.00
2018-11-03T19:44:36.650Z,76.50
2018-11-03T19:47:05.911Z,74.00
2018-11-03T19:49:34.923Z,73.30
2018-11-03T19:52:03.975Z,76.70
2018-11-03T19:54:32.896Z,74.90
2018-11-03T19:57:01.859Z,79.30
2018-11-03T19:59:30.897Z,76.20
2018-11-03T20:01:59.856Z,77.00
2018-11-03T20:04:28.878Z,74.00
2018-11-03T20:06:58.271Z,74.00
2018-11-03T20:09:27.253Z,74.00
2018-11-03T20:11:56.647Z,79.70
2018-11-03T20:14:27.185Z,77.50
2018-11-03T20:16:56.557Z,77.20
2018-11-03T20:19:27.538Z,75.80
2018-11-03T20:21:56.816Z,79.10
2018-11-03T20:24:26.231Z,78.20
2018-11-03T20:26:55.750Z,80.00
2018-11-03T20:29:25.115Z,79.00
2018-11-03T20:31:54.518Z,76.90
2018-11-03T20:34:23.954Z,76.50
2018-11-03T20:36:53.405Z,80.50
2018-11-03T20:39:23.331Z,80.10
2018-11-03T20:41:53.225Z,82.40
2018-11-03T20:44:22.988Z,82.40
2018-11-03T20:46:52.702Z,81.40
2018-11-03T20:49:23.067Z,80.90
2018-11-03T20:51:53.845Z,79.40
2018-11-03T20:54:23.743Z,80.60
2018-11-03T20:56:53.437Z,82.30
2018-11-03T20:59:23.289Z,83.00
2018-11-03T21:01:52.853Z,83.10
2018-11-03T21:04:26.607Z,85.10
2018-11-03T21:06:56.287Z,83.10
2018-11-03T21:09:26.180Z,84.30
2018-11-03T21:11:56.048Z,85.30
2018-11-03T21:14:25.637Z,87.50
2018-11-03T21:16:56.538Z,87.40
2018-11-03T21:19:26.358Z,89.30
2018-11-03T21:21:56.262Z,89.10
2018-11-03T21:24:25.903Z,87.20
2018-11-03T21:26:55.564Z,87.40
2018-11-03T21:29:25.514Z,88.80
2018-11-03T21:31:55.361Z,89.30
2018-11-03T21:34:25.602Z,89.00
2018-11-03T21:36:55.464Z,89.30
2018-11-03T21:39:24.735Z,90.80
2018-11-03T21:41:53.795Z,90.00
2018-11-03T21:44:22.951Z,90.40
2018-11-03T21:46:52.756Z,90.20
2018-11-03T21:49:21.810Z,89.80
2018-11-03T21:51:50.921Z,89.90
2018-11-03T21:54:21.206Z,89.70
2018-11-03T21:56:50.548Z,90.80
2018-11-03T21:59:19.580Z,90.80
2018-11-03T22:01:48.650Z,90.80
2018-11-03T22:04:17.566Z,90.80
2018-11-03T22:06:46.490Z,90.80
2018-11-03T22:09:15.549Z,90.80
2018-11-03T22:11:44.516Z,91.30
2018-11-03T22:14:13.509Z,91.40
2018-11-03T22:16:42.618Z,90.90
2018-11-03T22:19:11.643Z,91.50
2018-11-03T22:21:42.685Z,91.60
2018-11-03T22:24:11.777Z,91.70
2018-11-03T22:26:40.736Z,90.90
2018-11-03T22:29:09.794Z,91.40
2018-11-03T22:31:39.103Z,91.60
2018-11-03T22:34:08.218Z,92.00
2018-11-03T22:36:37.308Z,91.90
2018-11-03T22:39:07.750Z,91.80
2018-11-03T22:41:36.705Z,92.80
2018-11-03T22:44:05.693Z,92.40
2018-11-03T22:46:34.850Z,91.70
2018-11-03T22:49:03.774Z,92.20
2018-11-03T22:51:32.809Z,92.40
2018-11-03T22:54:01.697Z,92.50
2018-11-03T22:56:30.818Z,92.10
2018-11-03T22:58:59.854Z,92.00
2018-11-03T23:01:28.743Z,92.20
2018-11-03T23:03:57.652Z,92.30
2018-11-03T23:06:26.590Z,92.60
2018-11-03T23:08:55.530Z,92.60
2018-11-03T23:11:26.555Z,92.40
2018-11-03T23:13:55.470Z,92.50
2018-11-03T23:16:24.430Z,91.80
2018-11-03T23:18:53.350Z,91.90
2018-11-03T23:21:22.390Z,92.00
2018-11-03T23:23:51.310Z,92.30
2018-11-03T23:26:21.134Z,93.00
2018-11-03T23:28:50.155Z,92.00
2018-11-03T23:31:19.177Z,92.70
2018-11-03T23:33:48.329Z,92.90
2018-11-03T23:36:17.257Z,92.70
2018-11-03T23:38:46.197Z,93.10
2018-11-03T23:41:15.895Z,93.00
2018-11-03T23:43:44.806Z,93.30
2018-11-03T23:46:13.727Z,92.90
2018-11-03T23:48:42.665Z,92.70
2018-11-03T23:51:11.566Z,93.70
2018-11-03T23:53:41.556Z,93.10
2018-11-03T23:56:10.484Z,93.40
2018-11-03T23:58:39.394Z,93.30
